sensor_id;sensor_type;location;lat;lon;timestamp;temperature;humidity
37408;DHT22;24866;50.248;8.252;2022-07-11T00:02:11;16.00;99.90
37408;DHT22;24866;50.248;8.252;2022-07-11T00:04:41;16.10;99.90
37408;DHT22;24866;50.248;8.252;2022-07-11T00:07:13;16.10;99.90
37408;DHT22;24866;50.248;8.252;2022-07-11T00:09:44;16.10;99.90
37408;DHT22;24866;50.248;8.252;2022-07-11T00:12:14;16.20;99.90
37408;DHT22;24866;50.248;8.252;2022-07-11T00:14:44;16.10;99.90
37408;DHT22;24866;50.248;8.252;2022-07-11T00:17:14;16.10;99.90
37408;DHT22;24866;50.248;8.252;2022-07-11T00:19:44;16.10;99.90
37408;DHT22;24866;50.248;8.252;2022-07-11T00:22:16;16.10;99.90
37408;DHT22;24866;50.248;8.252;2022-07-11T00:24:46;16.10;99.90
37408;DHT22;24866;50.248;8.252;2022-07-11T00:27:16;15.90;99.90
37408;DHT22;24866;50.248;8.252;2022-07-11T00:29:46;15.80;99.90
37408;DHT22;24866;50.248;8.252;2022-07-11T00:32:16;15.90;99.90
37408;DHT22;24866;50.248;8.252;2022-07-11T00:34:46;16.00;99.90
37408;DHT22;24866;50.248;8.252;2022-07-11T00:37:17;15.90;99.90
37408;DHT22;24866;50.248;8.252;2022-07-11T00:39:47;15.90;99.90
37408;DHT22;24866;50.248;8.252;2022-07-11T00:42:20;15.80;99.90
37408;DHT22;24866;50.248;8.252;2022-07-11T00:44:50;15.90;99.90
37408;DHT22;24866;50.248;8.252;2022-07-11T00:47:20;15.90;99.90
37408;DHT22;24866;50.248;8.252;2022-07-11T00:49:50;15.90;99.90
37408;DHT22;24866;50.248;8.252;2022-07-11T00:52:21;15.90;99.90
37408;DHT22;24866;50.248;8.252;2022-07-11T00:54:52;16.00;99.90
37408;DHT22;24866;50.248;8.252;2022-07-11T00:57:23;16.10;99.90
37408;DHT22;24866;50.248;8.252;2022-07-11T00:59:54;16.10;99.90
37408;DHT22;24866;50.248;8.252;2022-07-11T01:02:24;16.00;99.90
37408;DHT22;24866;50.248;8.252;2022-07-11T01:04:54;16.00;99.90
37408;DHT22;24866;50.248;8.252;2022-07-11T01:07:25;16.10;99.90
37408;DHT22;24866;50.248;8.252;2022-07-11T01:09:55;16.10;99.90
37408;DHT22;24866;50.248;8.252;2022-07-11T01:12:25;16.00;99.90
37408;DHT22;24866;50.248;8.252;2022-07-11T01:14:56;16.00;99.90
37408;DHT22;24866;50.248;8.252;2022-07-11T01:17:29;15.90;99.90
37408;DHT22;24866;50.248;8.252;2022-07-11T01:19:58;15.80;99.90
37408;DHT22;24866;50.248;8.252;2022-07-11T01:22:34;15.80;99.90
37408;DHT22;24866;50.248;8.252;2022-07-11T01:25:07;15.80;99.90
37408;DHT22;24866;50.248;8.252;2022-07-11T01:27:38;15.80;99.90
37408;DHT22;24866;50.248;8.252;2022-07-11T01:30:09;15.80;99.90
37408;DHT22;24866;50.248;8.252;2022-07-11T01:32:39;15.80;99.90
37408;DHT22;24866;50.248;8.252;2022-07-11T01:35:09;15.70;99.90
37408;DHT22;24866;50.248;8.252;2022-07-11T01:37:39;15.80;99.90
37408;DHT22;24866;50.248;8.252;2022-07-11T01:40:11;15.90;99.90
37408;DHT22;24866;50.248;8.252;2022-07-11T01:42:41;15.90;99.90
37408;DHT22;24866;50.248;8.252;2022-07-11T01:45:12;15.90;99.90
37408;DHT22;24866;50.248;8.252;2022-07-11T01:47:42;15.90;99.90
37408;DHT22;24866;50.248;8.252;2022-07-11T01:50:12;15.80;99.90
37408;DHT22;24866;50.248;8.252;2022-07-11T01:52:42;15.90;99.90
37408;DHT22;24866;50.248;8.252;2022-07-11T01:55:13;15.70;99.90
37408;DHT22;24866;50.248;8.252;2022-07-11T01:57:43;15.80;99.90
37408;DHT22;24866;50.248;8.252;2022-07-11T02:00:13;15.90;99.90
37408;DHT22;24866;50.248;8.252;2022-07-11T02:02:43;15.90;99.90
37408;DHT22;24866;50.248;8.252;2022-07-11T02:05:13;15.80;99.90
37408;DHT22;24866;50.248;8.252;2022-07-11T02:07:44;15.70;99.90
37408;DHT22;24866;50.248;8.252;2022-07-11T02:10:32;15.80;99.90
37408;DHT22;24866;50.248;8.252;2022-07-11T02:13:02;15.80;99.90
37408;DHT22;24866;50.248;8.252;2022-07-11T02:15:32;15.80;99.90
37408;DHT22;24866;50.248;8.252;2022-07-11T02:18:02;15.90;99.90
37408;DHT22;24866;50.248;8.252;2022-07-11T02:20:33;15.90;99.90
37408;DHT22;24866;50.248;8.252;2022-07-11T02:23:03;15.90;99.90
37408;DHT22;24866;50.248;8.252;2022-07-11T02:25:35;15.90;99.90
37408;DHT22;24866;50.248;8.252;2022-07-11T02:28:07;16.00;99.90
37408;DHT22;24866;50.248;8.252;2022-07-11T02:30:38;16.00;99.90
37408;DHT22;24866;50.248;8.252;2022-07-11T02:33:09;16.00;99.90
37408;DHT22;24866;50.248;8.252;2022-07-11T02:35:42;15.90;99.90
37408;DHT22;24866;50.248;8.252;2022-07-11T02:38:12;16.00;99.90
37408;DHT22;24866;50.248;8.252;2022-07-11T02:40:45;15.90;99.90
37408;DHT22;24866;50.248;8.252;2022-07-11T02:43:15;15.90;99.90
37408;DHT22;24866;50.248;8.252;2022-07-11T02:45:45;16.00;99.90
37408;DHT22;24866;50.248;8.252;2022-07-11T02:48:15;16.00;99.90
37408;DHT22;24866;50.248;8.252;2022-07-11T02:50:45;15.70;99.90
37408;DHT22;24866;50.248;8.252;2022-07-11T02:53:15;15.80;99.90
37408;DHT22;24866;50.248;8.252;2022-07-11T02:55:46;15.60;99.90
37408;DHT22;24866;50.248;8.252;2022-07-11T02:58:16;15.80;99.90
37408;DHT22;24866;50.248;8.252;2022-07-11T03:00:46;15.90;99.90
37408;DHT22;24866;50.248;8.252;2022-07-11T03:03:16;15.80;99.90
37408;DHT22;24866;50.248;8.252;2022-07-11T03:05:46;15.90;99.90
37408;DHT22;24866;50.248;8.252;2022-07-11T03:08:16;15.90;99.90
37408;DHT22;24866;50.248;8.252;2022-07-11T03:10:48;16.00;99.90
37408;DHT22;24866;50.248;8.252;2022-07-11T03:13:17;16.00;99.90
37408;DHT22;24866;50.248;8.252;2022-07-11T03:15:47;15.90;99.90
37408;DHT22;24866;50.248;8.252;2022-07-11T03:18:17;16.00;99.90
37408;DHT22;24866;50.248;8.252;2022-07-11T03:20:47;15.90;99.90
37408;DHT22;24866;50.248;8.252;2022-07-11T03:23:17;15.90;99.90
37408;DHT22;24866;50.248;8.252;2022-07-11T03:25:49;15.80;99.90
37408;DHT22;24866;50.248;8.252;2022-07-11T03:28:19;16.00;99.90
37408;DHT22;24866;50.248;8.252;2022-07-11T03:30:49;16.00;99.90
37408;DHT22;24866;50.248;8.252;2022-07-11T03:33:19;15.90;99.90
37408;DHT22;24866;50.248;8.252;2022-07-11T03:35:49;15.90;99.90
37408;DHT22;24866;50.248;8.252;2022-07-11T03:38:19;16.00;99.90
37408;DHT22;24866;50.248;8.252;2022-07-11T03:40:51;15.70;99.90
37408;DHT22;24866;50.248;8.252;2022-07-11T03:43:23;15.70;99.90
37408;DHT22;24866;50.248;8.252;2022-07-11T03:45:53;15.90;99.90
37408;DHT22;24866;50.248;8.252;2022-07-11T03:48:26;15.90;99.90
37408;DHT22;24866;50.248;8.252;2022-07-11T03:50:56;16.00;99.90
37408;DHT22;24866;50.248;8.252;2022-07-11T03:53:26;16.00;99.90
37408;DHT22;24866;50.248;8.252;2022-07-11T03:55:57;15.80;99.90
37408;DHT22;24866;50.248;8.252;2022-07-11T03:58:27;15.70;99.90
37408;DHT22;24866;50.248;8.252;2022-07-11T04:00:58;15.70;99.90
37408;DHT22;24866;50.248;8.252;2022-07-11T04:03:28;15.80;99.90
37408;DHT22;24866;50.248;8.252;2022-07-11T04:05:58;15.80;99.90
37408;DHT22;24866;50.248;8.252;2022-07-11T04:08:28;15.80;99.90
37408;DHT22;24866;50.248;8.252;2022-07-11T04:10:59;15.90;99.90
37408;DHT22;24866;50.248;8.252;2022-07-11T04:13:30;16.00;99.90
37408;DHT22;24866;50.248;8.252;2022-07-11T04:16:00;16.00;99.90
37408;DHT22;24866;50.248;8.252;2022-07-11T04:18:30;16.00;99.90
37408;DHT22;24866;50.248;8.252;2022-07-11T04:21:00;16.00;99.90
37408;DHT22;24866;50.248;8.252;2022-07-11T04:23:30;16.00;99.90
37408;DHT22;24866;50.248;8.252;2022-07-11T04:26:01;16.00;99.90
37408;DHT22;24866;50.248;8.252;2022-07-11T04:28:31;16.00;99.90
37408;DHT22;24866;50.248;8.252;2022-07-11T04:31:02;16.00;99.90
37408;DHT22;24866;50.248;8.252;2022-07-11T04:33:32;15.90;99.90
37408;DHT22;24866;50.248;8.252;2022-07-11T04:36:03;15.80;99.90
37408;DHT22;24866;50.248;8.252;2022-07-11T04:38:33;15.90;99.90
37408;DHT22;24866;50.248;8.252;2022-07-11T04:41:04;15.90;99.90
37408;DHT22;24866;50.248;8.252;2022-07-11T04:43:35;15.70;99.90
37408;DHT22;24866;50.248;8.252;2022-07-11T04:46:06;15.70;99.90
37408;DHT22;24866;50.248;8.252;2022-07-11T04:48:36;15.70;99.90
37408;DHT22;24866;50.248;8.252;2022-07-11T04:51:07;15.80;99.90
37408;DHT22;24866;50.248;8.252;2022-07-11T04:53:37;16.00;99.90
37408;DHT22;24866;50.248;8.252;2022-07-11T04:56:08;16.00;99.90
37408;DHT22;24866;50.248;8.252;2022-07-11T04:58:38;15.90;99.90
37408;DHT22;24866;50.248;8.252;2022-07-11T05:01:08;15.70;99.90
37408;DHT22;24866;50.248;8.252;2022-07-11T05:03:39;15.60;99.90
37408;DHT22;24866;50.248;8.252;2022-07-11T05:06:08;15.70;99.90
37408;DHT22;24866;50.248;8.252;2022-07-11T05:08:38;15.80;99.90
37408;DHT22;24866;50.248;8.252;2022-07-11T05:11:10;15.80;99.90
37408;DHT22;24866;50.248;8.252;2022-07-11T05:13:40;15.70;99.90
37408;DHT22;24866;50.248;8.252;2022-07-11T05:16:10;15.80;99.90
37408;DHT22;24866;50.248;8.252;2022-07-11T05:18:40;15.70;99.90
37408;DHT22;24866;50.248;8.252;2022-07-11T05:21:10;15.80;99.90
37408;DHT22;24866;50.248;8.252;2022-07-11T05:23:40;15.90;99.90
37408;DHT22;24866;50.248;8.252;2022-07-11T05:26:11;15.90;99.90
37408;DHT22;24866;50.248;8.252;2022-07-11T05:28:43;16.00;99.90
37408;DHT22;24866;50.248;8.252;2022-07-11T05:31:13;16.10;99.90
37408;DHT22;24866;50.248;8.252;2022-07-11T05:33:43;16.20;99.90
37408;DHT22;24866;50.248;8.252;2022-07-11T05:36:13;16.20;99.90
37408;DHT22;24866;50.248;8.252;2022-07-11T05:38:43;16.20;99.90
37408;DHT22;24866;50.248;8.252;2022-07-11T05:41:14;16.20;99.90
37408;DHT22;24866;50.248;8.252;2022-07-11T05:43:44;16.20;99.90
37408;DHT22;24866;50.248;8.252;2022-07-11T05:46:14;16.40;99.90
37408;DHT22;24866;50.248;8.252;2022-07-11T05:48:44;16.50;99.90
37408;DHT22;24866;50.248;8.252;2022-07-11T05:51:14;16.40;99.90
37408;DHT22;24866;50.248;8.252;2022-07-11T05:53:45;16.50;99.90
37408;DHT22;24866;50.248;8.252;2022-07-11T05:56:16;16.50;99.90
37408;DHT22;24866;50.248;8.252;2022-07-11T05:58:46;16.50;99.90
37408;DHT22;24866;50.248;8.252;2022-07-11T06:01:16;16.60;99.90
37408;DHT22;24866;50.248;8.252;2022-07-11T06:03:46;16.70;99.90
37408;DHT22;24866;50.248;8.252;2022-07-11T06:06:16;16.70;99.90
37408;DHT22;24866;50.248;8.252;2022-07-11T06:08:46;16.70;99.90
37408;DHT22;24866;50.248;8.252;2022-07-11T06:11:17;16.70;99.90
37408;DHT22;24866;50.248;8.252;2022-07-11T06:13:47;16.80;99.90
37408;DHT22;24866;50.248;8.252;2022-07-11T06:16:18;16.80;99.90
37408;DHT22;24866;50.248;8.252;2022-07-11T06:18:48;16.80;99.90
37408;DHT22;24866;50.248;8.252;2022-07-11T06:21:19;16.80;99.90
37408;DHT22;24866;50.248;8.252;2022-07-11T06:23:50;16.80;99.90
37408;DHT22;24866;50.248;8.252;2022-07-11T06:26:21;16.90;99.90
37408;DHT22;24866;50.248;8.252;2022-07-11T06:28:51;17.00;99.90
37408;DHT22;24866;50.248;8.252;2022-07-11T06:31:21;17.00;99.90
37408;DHT22;24866;50.248;8.252;2022-07-11T06:33:51;16.90;99.90
37408;DHT22;24866;50.248;8.252;2022-07-11T06:36:25;16.80;99.90
37408;DHT22;24866;50.248;8.252;2022-07-11T06:38:55;16.80;99.90
37408;DHT22;24866;50.248;8.252;2022-07-11T06:41:26;16.90;99.90
37408;DHT22;24866;50.248;8.252;2022-07-11T06:43:56;16.80;99.90
37408;DHT22;24866;50.248;8.252;2022-07-11T06:46:26;16.80;99.90
37408;DHT22;24866;50.248;8.252;2022-07-11T06:48:57;17.00;99.90
37408;DHT22;24866;50.248;8.252;2022-07-11T06:51:27;16.90;99.90
37408;DHT22;24866;50.248;8.252;2022-07-11T06:53:57;17.00;99.90
37408;DHT22;24866;50.248;8.252;2022-07-11T06:56:28;17.00;99.90
37408;DHT22;24866;50.248;8.252;2022-07-11T06:58:58;17.00;99.90
37408;DHT22;24866;50.248;8.252;2022-07-11T07:01:28;17.10;99.90
37408;DHT22;24866;50.248;8.252;2022-07-11T07:03:58;17.10;99.90
37408;DHT22;24866;50.248;8.252;2022-07-11T07:06:28;17.10;99.90
37408;DHT22;24866;50.248;8.252;2022-07-11T07:08:58;17.00;99.90
37408;DHT22;24866;50.248;8.252;2022-07-11T07:11:31;17.20;99.90
37408;DHT22;24866;50.248;8.252;2022-07-11T07:14:01;17.30;99.90
37408;DHT22;24866;50.248;8.252;2022-07-11T07:16:31;17.30;99.90
37408;DHT22;24866;50.248;8.252;2022-07-11T07:19:03;17.20;99.90
37408;DHT22;24866;50.248;8.252;2022-07-11T07:21:33;17.20;99.90
37408;DHT22;24866;50.248;8.252;2022-07-11T07:24:04;17.30;99.90
37408;DHT22;24866;50.248;8.252;2022-07-11T07:26:36;17.30;99.90
37408;DHT22;24866;50.248;8.252;2022-07-11T07:29:06;17.50;99.90
37408;DHT22;24866;50.248;8.252;2022-07-11T07:31:36;17.60;99.90
37408;DHT22;24866;50.248;8.252;2022-07-11T07:34:06;17.60;99.90
37408;DHT22;24866;50.248;8.252;2022-07-11T07:36:36;17.60;99.90
37408;DHT22;24866;50.248;8.252;2022-07-11T07:39:06;17.40;99.90
37408;DHT22;24866;50.248;8.252;2022-07-11T07:41:38;17.50;99.90
37408;DHT22;24866;50.248;8.252;2022-07-11T07:44:08;17.50;99.90
37408;DHT22;24866;50.248;8.252;2022-07-11T07:46:39;17.60;99.90
37408;DHT22;24866;50.248;8.252;2022-07-11T07:49:12;17.70;99.90
37408;DHT22;24866;50.248;8.252;2022-07-11T07:51:42;17.70;99.90
37408;DHT22;24866;50.248;8.252;2022-07-11T07:54:12;17.60;99.90
37408;DHT22;24866;50.248;8.252;2022-07-11T07:56:44;17.60;99.90
37408;DHT22;24866;50.248;8.252;2022-07-11T07:59:14;17.80;99.90
37408;DHT22;24866;50.248;8.252;2022-07-11T08:01:44;18.00;99.90
37408;DHT22;24866;50.248;8.252;2022-07-11T08:04:14;18.10;99.90
37408;DHT22;24866;50.248;8.252;2022-07-11T08:06:44;18.00;99.90
37408;DHT22;24866;50.248;8.252;2022-07-11T08:09:14;17.90;99.90
37408;DHT22;24866;50.248;8.252;2022-07-11T08:11:48;17.90;99.90
37408;DHT22;24866;50.248;8.252;2022-07-11T08:14:21;17.90;99.90
37408;DHT22;24866;50.248;8.252;2022-07-11T08:16:51;17.80;99.90
37408;DHT22;24866;50.248;8.252;2022-07-11T08:19:21;17.80;99.90
37408;DHT22;24866;50.248;8.252;2022-07-11T08:21:56;17.90;99.90
37408;DHT22;24866;50.248;8.252;2022-07-11T08:24:26;18.00;99.90
37408;DHT22;24866;50.248;8.252;2022-07-11T08:26:58;18.00;99.90
37408;DHT22;24866;50.248;8.252;2022-07-11T08:29:28;17.80;99.90
37408;DHT22;24866;50.248;8.252;2022-07-11T08:31:58;18.00;99.90
37408;DHT22;24866;50.248;8.252;2022-07-11T08:34:29;18.10;99.90
37408;DHT22;24866;50.248;8.252;2022-07-11T08:36:59;18.20;99.90
37408;DHT22;24866;50.248;8.252;2022-07-11T08:39:29;18.10;99.90
37408;DHT22;24866;50.248;8.252;2022-07-11T08:42:00;18.30;99.90
37408;DHT22;24866;50.248;8.252;2022-07-11T08:44:31;18.40;99.90
37408;DHT22;24866;50.248;8.252;2022-07-11T08:47:03;18.60;99.90
37408;DHT22;24866;50.248;8.252;2022-07-11T08:49:33;18.80;99.90
37408;DHT22;24866;50.248;8.252;2022-07-11T08:52:05;18.80;99.90
37408;DHT22;24866;50.248;8.252;2022-07-11T08:54:36;18.60;99.90
37408;DHT22;24866;50.248;8.252;2022-07-11T08:57:09;18.50;99.90
37408;DHT22;24866;50.248;8.252;2022-07-11T08:59:41;18.60;99.90
37408;DHT22;24866;50.248;8.252;2022-07-11T09:02:12;18.80;99.90
37408;DHT22;24866;50.248;8.252;2022-07-11T09:04:43;18.70;99.90
37408;DHT22;24866;50.248;8.252;2022-07-11T09:07:14;18.70;99.90
37408;DHT22;24866;50.248;8.252;2022-07-11T09:09:44;18.70;99.90
37408;DHT22;24866;50.248;8.252;2022-07-11T09:12:16;18.70;99.90
37408;DHT22;24866;50.248;8.252;2022-07-11T09:15:01;18.60;99.90
37408;DHT22;24866;50.248;8.252;2022-07-11T09:17:31;18.70;99.90
37408;DHT22;24866;50.248;8.252;2022-07-11T09:20:01;18.60;99.90
37408;DHT22;24866;50.248;8.252;2022-07-11T09:22:33;18.60;99.90
37408;DHT22;24866;50.248;8.252;2022-07-11T09:25:20;18.70;99.90
37408;DHT22;24866;50.248;8.252;2022-07-11T09:27:55;18.70;99.90
37408;DHT22;24866;50.248;8.252;2022-07-11T09:30:31;19.00;99.90
37408;DHT22;24866;50.248;8.252;2022-07-11T09:33:03;19.00;99.90
37408;DHT22;24866;50.248;8.252;2022-07-11T09:35:34;19.10;99.90
37408;DHT22;24866;50.248;8.252;2022-07-11T09:38:07;19.30;99.90
37408;DHT22;24866;50.248;8.252;2022-07-11T09:40:38;19.20;99.90
37408;DHT22;24866;50.248;8.252;2022-07-11T09:43:09;19.40;99.90
37408;DHT22;24866;50.248;8.252;2022-07-11T09:45:40;20.20;99.90
37408;DHT22;24866;50.248;8.252;2022-07-11T09:48:11;20.80;99.90
37408;DHT22;24866;50.248;8.252;2022-07-11T09:50:53;20.70;99.90
37408;DHT22;24866;50.248;8.252;2022-07-11T09:53:25;20.00;99.90
37408;DHT22;24866;50.248;8.252;2022-07-11T09:55:55;19.60;99.90
37408;DHT22;24866;50.248;8.252;2022-07-11T09:58:29;19.60;99.90
37408;DHT22;24866;50.248;8.252;2022-07-11T10:01:00;20.20;99.90
37408;DHT22;24866;50.248;8.252;2022-07-11T10:03:31;20.40;99.90
37408;DHT22;24866;50.248;8.252;2022-07-11T10:06:01;20.30;99.90
37408;DHT22;24866;50.248;8.252;2022-07-11T10:08:32;20.30;99.90
37408;DHT22;24866;50.248;8.252;2022-07-11T10:11:02;20.60;99.90
37408;DHT22;24866;50.248;8.252;2022-07-11T10:13:35;21.10;99.90
37408;DHT22;24866;50.248;8.252;2022-07-11T10:16:13;21.10;99.90
37408;DHT22;24866;50.248;8.252;2022-07-11T10:18:50;20.80;99.90
37408;DHT22;24866;50.248;8.252;2022-07-11T10:21:25;20.80;99.90
37408;DHT22;24866;50.248;8.252;2022-07-11T10:24:01;20.50;99.90
37408;DHT22;24866;50.248;8.252;2022-07-11T10:26:49;20.30;99.90
37408;DHT22;24866;50.248;8.252;2022-07-11T10:29:29;20.40;99.90
37408;DHT22;24866;50.248;8.252;2022-07-11T10:32:07;20.10;99.90
37408;DHT22;24866;50.248;8.252;2022-07-11T10:34:38;20.20;99.90
37408;DHT22;24866;50.248;8.252;2022-07-11T10:37:09;20.90;99.90
37408;DHT22;24866;50.248;8.252;2022-07-11T10:39:57;21.30;99.90
37408;DHT22;24866;50.248;8.252;2022-07-11T10:42:39;21.70;99.90
37408;DHT22;24866;50.248;8.252;2022-07-11T10:45:11;20.60;99.90
37408;DHT22;24866;50.248;8.252;2022-07-11T10:47:42;20.40;99.90
37408;DHT22;24866;50.248;8.252;2022-07-11T10:50:28;20.40;99.90
37408;DHT22;24866;50.248;8.252;2022-07-11T10:53:06;20.90;99.90
37408;DHT22;24866;50.248;8.252;2022-07-11T10:55:42;21.10;99.90
37408;DHT22;24866;50.248;8.252;2022-07-11T10:58:19;21.00;99.90
37408;DHT22;24866;50.248;8.252;2022-07-11T11:01:07;21.10;99.90
37408;DHT22;24866;50.248;8.252;2022-07-11T11:03:39;21.20;99.90
37408;DHT22;24866;50.248;8.252;2022-07-11T11:06:10;21.00;99.90
37408;DHT22;24866;50.248;8.252;2022-07-11T11:08:45;21.30;99.90
37408;DHT22;24866;50.248;8.252;2022-07-11T11:11:38;21.10;99.90
37408;DHT22;24866;50.248;8.252;2022-07-11T11:14:20;20.80;99.90
37408;DHT22;24866;50.248;8.252;2022-07-11T11:16:53;20.90;99.90
37408;DHT22;24866;50.248;8.252;2022-07-11T11:19:54;21.30;99.90
37408;DHT22;24866;50.248;8.252;2022-07-11T11:22:24;21.30;99.90
37408;DHT22;24866;50.248;8.252;2022-07-11T11:24:56;21.70;99.90
37408;DHT22;24866;50.248;8.252;2022-07-11T11:27:26;21.60;99.90
37408;DHT22;24866;50.248;8.252;2022-07-11T11:29:57;21.80;99.90
37408;DHT22;24866;50.248;8.252;2022-07-11T11:32:30;21.50;99.90
37408;DHT22;24866;50.248;8.252;2022-07-11T11:35:00;21.30;99.90
37408;DHT22;24866;50.248;8.252;2022-07-11T11:37:33;21.10;99.90
37408;DHT22;24866;50.248;8.252;2022-07-11T11:40:05;20.90;99.90
37408;DHT22;24866;50.248;8.252;2022-07-11T11:42:35;21.10;99.90
37408;DHT22;24866;50.248;8.252;2022-07-11T11:45:06;21.30;99.90
37408;DHT22;24866;50.248;8.252;2022-07-11T11:47:48;21.30;99.90
37408;DHT22;24866;50.248;8.252;2022-07-11T11:50:19;21.20;99.90
37408;DHT22;24866;50.248;8.252;2022-07-11T11:52:49;21.40;99.90
37408;DHT22;24866;50.248;8.252;2022-07-11T11:55:20;21.20;99.90
37408;DHT22;24866;50.248;8.252;2022-07-11T11:57:50;21.80;99.90
37408;DHT22;24866;50.248;8.252;2022-07-11T12:00:21;21.90;99.90
37408;DHT22;24866;50.248;8.252;2022-07-11T12:02:56;21.70;99.90
37408;DHT22;24866;50.248;8.252;2022-07-11T12:05:26;21.30;99.90
37408;DHT22;24866;50.248;8.252;2022-07-11T12:07:57;21.20;99.90
37408;DHT22;24866;50.248;8.252;2022-07-11T12:10:27;21.40;99.90
37408;DHT22;24866;50.248;8.252;2022-07-11T12:12:58;21.40;99.90
37408;DHT22;24866;50.248;8.252;2022-07-11T12:15:31;21.50;99.90
37408;DHT22;24866;50.248;8.252;2022-07-11T12:18:05;21.60;99.90
37408;DHT22;24866;50.248;8.252;2022-07-11T12:20:38;21.80;99.90
37408;DHT22;24866;50.248;8.252;2022-07-11T12:23:10;21.70;99.90
37408;DHT22;24866;50.248;8.252;2022-07-11T12:25:41;21.90;99.90
37408;DHT22;24866;50.248;8.252;2022-07-11T12:28:12;21.60;99.90
37408;DHT22;24866;50.248;8.252;2022-07-11T12:30:43;21.60;99.90
37408;DHT22;24866;50.248;8.252;2022-07-11T12:33:15;21.40;99.90
37408;DHT22;24866;50.248;8.252;2022-07-11T12:35:57;21.50;99.90
37408;DHT22;24866;50.248;8.252;2022-07-11T12:38:46;21.60;99.90
37408;DHT22;24866;50.248;8.252;2022-07-11T12:41:17;22.00;99.90
37408;DHT22;24866;50.248;8.252;2022-07-11T12:43:48;22.40;99.90
37408;DHT22;24866;50.248;8.252;2022-07-11T12:46:37;22.30;99.90
37408;DHT22;24866;50.248;8.252;2022-07-11T12:49:11;21.60;99.90
37408;DHT22;24866;50.248;8.252;2022-07-11T12:51:42;22.10;99.90
37408;DHT22;24866;50.248;8.252;2022-07-11T12:54:14;22.00;99.90
37408;DHT22;24866;50.248;8.252;2022-07-11T12:56:55;22.00;99.90
37408;DHT22;24866;50.248;8.252;2022-07-11T12:59:26;22.40;99.90
37408;DHT22;24866;50.248;8.252;2022-07-11T13:01:58;22.40;99.90
37408;DHT22;24866;50.248;8.252;2022-07-11T13:04:32;22.00;99.90
37408;DHT22;24866;50.248;8.252;2022-07-11T13:07:25;21.70;99.90
37408;DHT22;24866;50.248;8.252;2022-07-11T13:10:14;21.70;99.90
37408;DHT22;24866;50.248;8.252;2022-07-11T13:12:46;21.80;99.90
37408;DHT22;24866;50.248;8.252;2022-07-11T13:15:17;21.70;99.90
37408;DHT22;24866;50.248;8.252;2022-07-11T13:17:49;21.60;99.90
37408;DHT22;24866;50.248;8.252;2022-07-11T13:20:22;21.80;99.90
37408;DHT22;24866;50.248;8.252;2022-07-11T13:22:53;21.70;99.90
37408;DHT22;24866;50.248;8.252;2022-07-11T13:25:23;21.80;99.90
37408;DHT22;24866;50.248;8.252;2022-07-11T13:27:53;21.70;99.90
37408;DHT22;24866;50.248;8.252;2022-07-11T13:30:24;21.70;99.90
37408;DHT22;24866;50.248;8.252;2022-07-11T13:32:58;21.60;99.90
37408;DHT22;24866;50.248;8.252;2022-07-11T13:35:30;21.50;99.90
37408;DHT22;24866;50.248;8.252;2022-07-11T13:38:01;22.00;99.90
37408;DHT22;24866;50.248;8.252;2022-07-11T13:40:31;22.00;99.90
37408;DHT22;24866;50.248;8.252;2022-07-11T13:43:02;21.90;99.90
37408;DHT22;24866;50.248;8.252;2022-07-11T13:45:32;22.20;99.90
37408;DHT22;24866;50.248;8.252;2022-07-11T13:48:03;22.20;99.90
37408;DHT22;24866;50.248;8.252;2022-07-11T13:50:34;22.50;99.90
37408;DHT22;24866;50.248;8.252;2022-07-11T13:53:04;22.80;99.90
37408;DHT22;24866;50.248;8.252;2022-07-11T13:55:35;22.80;99.90
37408;DHT22;24866;50.248;8.252;2022-07-11T13:58:06;22.70;99.90
37408;DHT22;24866;50.248;8.252;2022-07-11T14:00:52;22.50;99.90
37408;DHT22;24866;50.248;8.252;2022-07-11T14:03:22;23.20;99.90
37408;DHT22;24866;50.248;8.252;2022-07-11T14:05:54;23.50;99.90
37408;DHT22;24866;50.248;8.252;2022-07-11T14:08:24;23.40;99.90
37408;DHT22;24866;50.248;8.252;2022-07-11T14:10:55;23.40;99.90
37408;DHT22;24866;50.248;8.252;2022-07-11T14:13:25;23.40;99.90
37408;DHT22;24866;50.248;8.252;2022-07-11T14:15:55;23.50;99.90
37408;DHT22;24866;50.248;8.252;2022-07-11T14:18:26;23.30;99.90
37408;DHT22;24866;50.248;8.252;2022-07-11T14:20:58;22.70;99.90
37408;DHT22;24866;50.248;8.252;2022-07-11T14:23:28;23.00;99.90
37408;DHT22;24866;50.248;8.252;2022-07-11T14:25:59;22.90;99.90
37408;DHT22;24866;50.248;8.252;2022-07-11T14:28:30;22.90;99.90
37408;DHT22;24866;50.248;8.252;2022-07-11T14:31:01;23.30;99.90
37408;DHT22;24866;50.248;8.252;2022-07-11T14:33:31;23.00;99.90
37408;DHT22;24866;50.248;8.252;2022-07-11T14:36:03;22.80;99.90
37408;DHT22;24866;50.248;8.252;2022-07-11T14:38:34;22.80;99.90
37408;DHT22;24866;50.248;8.252;2022-07-11T14:41:05;23.20;99.90
37408;DHT22;24866;50.248;8.252;2022-07-11T14:43:35;23.30;99.90
37408;DHT22;24866;50.248;8.252;2022-07-11T14:46:05;22.90;99.90
37408;DHT22;24866;50.248;8.252;2022-07-11T14:48:35;23.20;99.90
37408;DHT22;24866;50.248;8.252;2022-07-11T14:51:07;23.40;99.90
37408;DHT22;24866;50.248;8.252;2022-07-11T14:53:38;23.80;99.90
37408;DHT22;24866;50.248;8.252;2022-07-11T14:56:08;23.60;99.90
37408;DHT22;24866;50.248;8.252;2022-07-11T14:58:39;23.40;99.90
37408;DHT22;24866;50.248;8.252;2022-07-11T15:01:11;23.50;99.90
37408;DHT22;24866;50.248;8.252;2022-07-11T15:03:43;23.50;99.90
37408;DHT22;24866;50.248;8.252;2022-07-11T15:06:16;23.60;99.90
37408;DHT22;24866;50.248;8.252;2022-07-11T15:08:47;23.70;99.90
37408;DHT22;24866;50.248;8.252;2022-07-11T15:11:34;23.90;99.90
37408;DHT22;24866;50.248;8.252;2022-07-11T15:14:47;23.60;99.90
37408;DHT22;24866;50.248;8.252;2022-07-11T15:17:17;23.70;99.90
37408;DHT22;24866;50.248;8.252;2022-07-11T15:19:47;23.60;99.90
37408;DHT22;24866;50.248;8.252;2022-07-11T15:22:19;23.50;99.90
37408;DHT22;24866;50.248;8.252;2022-07-11T15:24:50;23.90;99.90
37408;DHT22;24866;50.248;8.252;2022-07-11T15:27:20;23.90;99.90
37408;DHT22;24866;50.248;8.252;2022-07-11T15:29:50;23.70;99.90
37408;DHT22;24866;50.248;8.252;2022-07-11T15:32:20;23.80;99.90
37408;DHT22;24866;50.248;8.252;2022-07-11T15:34:51;23.30;99.90
37408;DHT22;24866;50.248;8.252;2022-07-11T15:37:22;23.20;99.90
37408;DHT22;24866;50.248;8.252;2022-07-11T15:39:52;22.80;99.90
37408;DHT22;24866;50.248;8.252;2022-07-11T15:42:23;23.30;99.90
37408;DHT22;24866;50.248;8.252;2022-07-11T15:44:53;23.70;99.90
37408;DHT22;24866;50.248;8.252;2022-07-11T15:47:24;23.20;99.90
37408;DHT22;24866;50.248;8.252;2022-07-11T15:49:54;23.20;99.90
37408;DHT22;24866;50.248;8.252;2022-07-11T15:52:25;23.20;99.90
37408;DHT22;24866;50.248;8.252;2022-07-11T15:54:55;23.40;99.90
37408;DHT22;24866;50.248;8.252;2022-07-11T15:57:25;23.00;98.60
37408;DHT22;24866;50.248;8.252;2022-07-11T15:59:55;22.90;99.90